sensor_id;sensor_type;location;lat;lon;timestamp;P1;durP1;ratioP1;P2;durP2;ratioP2
50231;SDS011;36118;56.468;84.952;2022-12-13T00:01:12;14.05;;;5.55;;
50231;SDS011;36118;56.468;84.952;2022-12-13T00:06:17;14.00;;;5.97;;
50231;SDS011;36118;56.468;84.952;2022-12-13T00:11:20;12.25;;;5.93;;
50231;SDS011;36118;56.468;84.952;2022-12-13T00:16:23;14.63;;;6.43;;
50231;SDS011;36118;56.468;84.952;2022-12-13T00:21:31;16.45;;;6.10;;
50231;SDS011;36118;56.468;84.952;2022-12-13T00:26:34;16.35;;;5.18;;
50231;SDS011;36118;56.468;84.952;2022-12-13T00:31:37;12.70;;;2.70;;
50231;SDS011;36118;56.468;84.952;2022-12-13T00:37:00;16.53;;;4.80;;
50231;SDS011;36118;56.468;84.952;2022-12-13T00:42:03;14.35;;;5.30;;
50231;SDS011;36118;56.468;84.952;2022-12-13T00:47:06;11.57;;;4.20;;
50231;SDS011;36118;56.468;84.952;2022-12-13T00:52:08;13.13;;;5.15;;
50231;SDS011;36118;56.468;84.952;2022-12-13T00:57:11;12.07;;;4.88;;
50231;SDS011;36118;56.468;84.952;2022-12-13T01:02:14;16.35;;;3.95;;
50231;SDS011;36118;56.468;84.952;2022-12-13T01:07:16;11.40;;;4.45;;
50231;SDS011;36118;56.468;84.952;2022-12-13T01:12:19;12.63;;;4.63;;
50231;SDS011;36118;56.468;84.952;2022-12-13T01:17:22;12.55;;;4.05;;
50231;SDS011;36118;56.468;84.952;2022-12-13T01:22:25;12.95;;;4.80;;
50231;SDS011;36118;56.468;84.952;2022-12-13T01:27:28;12.73;;;4.00;;
50231;SDS011;36118;56.468;84.952;2022-12-13T01:32:30;14.60;;;5.82;;
50231;SDS011;36118;56.468;84.952;2022-12-13T01:37:33;13.93;;;5.50;;
50231;SDS011;36118;56.468;84.952;2022-12-13T01:42:38;14.70;;;5.50;;
50231;SDS011;36118;56.468;84.952;2022-12-13T01:47:45;12.65;;;5.35;;
50231;SDS011;36118;56.468;84.952;2022-12-13T01:52:48;19.20;;;6.63;;
50231;SDS011;36118;56.468;84.952;2022-12-13T01:57:51;16.87;;;6.97;;
50231;SDS011;36118;56.468;84.952;2022-12-13T02:02:55;23.07;;;8.53;;
50231;SDS011;36118;56.468;84.952;2022-12-13T02:07:59;18.45;;;6.38;;
50231;SDS011;36118;56.468;84.952;2022-12-13T02:13:02;12.63;;;4.15;;
50231;SDS011;36118;56.468;84.952;2022-12-13T02:34:37;15.98;;;5.97;;
50231;SDS011;36118;56.468;84.952;2022-12-13T02:40:29;15.18;;;6.28;;
50231;SDS011;36118;56.468;84.952;2022-12-13T02:45:19;18.25;;;6.10;;
50231;SDS011;36118;56.468;84.952;2022-12-13T02:50:25;13.63;;;5.93;;
50231;SDS011;36118;56.468;84.952;2022-12-13T02:55:29;16.25;;;6.32;;
50231;SDS011;36118;56.468;84.952;2022-12-13T03:17:08;22.67;;;7.32;;
50231;SDS011;36118;56.468;84.952;2022-12-13T03:22:11;14.45;;;5.57;;
50231;SDS011;36118;56.468;84.952;2022-12-13T03:27:14;18.95;;;7.80;;
50231;SDS011;36118;56.468;84.952;2022-12-13T03:32:17;10.55;;;4.70;;
50231;SDS011;36118;56.468;84.952;2022-12-13T03:37:19;15.52;;;6.40;;
50231;SDS011;36118;56.468;84.952;2022-12-13T03:42:23;13.90;;;5.20;;
50231;SDS011;36118;56.468;84.952;2022-12-13T03:47:25;14.52;;;6.25;;
50231;SDS011;36118;56.468;84.952;2022-12-13T03:52:28;14.52;;;6.80;;
50231;SDS011;36118;56.468;84.952;2022-12-13T03:57:31;20.38;;;8.48;;
50231;SDS011;36118;56.468;84.952;2022-12-13T04:02:34;15.20;;;4.55;;
50231;SDS011;36118;56.468;84.952;2022-12-13T04:07:36;14.15;;;5.85;;
50231;SDS011;36118;56.468;84.952;2022-12-13T04:12:48;18.52;;;4.68;;
50231;SDS011;36118;56.468;84.952;2022-12-13T04:18:09;14.52;;;4.38;;
50231;SDS011;36118;56.468;84.952;2022-12-13T04:23:12;19.30;;;5.53;;
50231;SDS011;36118;56.468;84.952;2022-12-13T04:28:15;14.00;;;6.00;;
50231;SDS011;36118;56.468;84.952;2022-12-13T04:33:23;15.82;;;5.78;;
50231;SDS011;36118;56.468;84.952;2022-12-13T04:38:26;9.13;;;4.10;;
50231;SDS011;36118;56.468;84.952;2022-12-13T04:43:29;14.88;;;4.90;;
50231;SDS011;36118;56.468;84.952;2022-12-13T04:48:32;13.85;;;4.43;;
50231;SDS011;36118;56.468;84.952;2022-12-13T04:53:35;14.52;;;4.82;;
50231;SDS011;36118;56.468;84.952;2022-12-13T04:58:38;15.02;;;5.35;;
50231;SDS011;36118;56.468;84.952;2022-12-13T05:03:41;16.17;;;4.22;;
50231;SDS011;36118;56.468;84.952;2022-12-13T05:08:43;9.80;;;3.00;;
50231;SDS011;36118;56.468;84.952;2022-12-13T05:13:46;7.53;;;2.85;;
50231;SDS011;36118;56.468;84.952;2022-12-13T05:18:49;13.38;;;3.88;;
50231;SDS011;36118;56.468;84.952;2022-12-13T05:23:52;6.78;;;2.45;;
50231;SDS011;36118;56.468;84.952;2022-12-13T05:28:55;5.38;;;1.95;;
50231;SDS011;36118;56.468;84.952;2022-12-13T05:33:58;11.95;;;4.25;;
50231;SDS011;36118;56.468;84.952;2022-12-13T05:39:02;11.88;;;4.07;;
50231;SDS011;36118;56.468;84.952;2022-12-13T05:44:05;13.15;;;4.88;;
50231;SDS011;36118;56.468;84.952;2022-12-13T05:49:07;12.77;;;4.43;;
50231;SDS011;36118;56.468;84.952;2022-12-13T05:54:10;9.55;;;2.47;;
50231;SDS011;36118;56.468;84.952;2022-12-13T05:59:13;10.13;;;3.85;;
50231;SDS011;36118;56.468;84.952;2022-12-13T06:04:16;6.05;;;1.75;;
50231;SDS011;36118;56.468;84.952;2022-12-13T06:09:24;11.43;;;3.90;;
50231;SDS011;36118;56.468;84.952;2022-12-13T06:14:26;13.88;;;4.22;;
50231;SDS011;36118;56.468;84.952;2022-12-13T06:19:29;8.82;;;3.88;;
50231;SDS011;36118;56.468;84.952;2022-12-13T06:24:32;8.98;;;3.65;;
50231;SDS011;36118;56.468;84.952;2022-12-13T06:29:34;10.38;;;3.45;;
50231;SDS011;36118;56.468;84.952;2022-12-13T06:34:37;11.18;;;3.17;;
50231;SDS011;36118;56.468;84.952;2022-12-13T06:39:40;14.23;;;4.55;;
50231;SDS011;36118;56.468;84.952;2022-12-13T06:44:45;12.00;;;5.15;;
50231;SDS011;36118;56.468;84.952;2022-12-13T06:49:47;6.50;;;2.05;;
50231;SDS011;36118;56.468;84.952;2022-12-13T06:54:50;10.65;;;3.08;;
50231;SDS011;36118;56.468;84.952;2022-12-13T07:00:00;7.15;;;3.00;;
50231;SDS011;36118;56.468;84.952;2022-12-13T07:05:05;10.82;;;4.22;;
50231;SDS011;36118;56.468;84.952;2022-12-13T07:10:08;14.65;;;6.25;;
50231;SDS011;36118;56.468;84.952;2022-12-13T07:15:23;13.32;;;4.00;;
50231;SDS011;36118;56.468;84.952;2022-12-13T07:20:25;11.70;;;4.22;;
50231;SDS011;36118;56.468;84.952;2022-12-13T07:25:28;9.38;;;2.75;;
50231;SDS011;36118;56.468;84.952;2022-12-13T07:30:35;14.40;;;4.68;;
50231;SDS011;36118;56.468;84.952;2022-12-13T07:35:46;10.82;;;3.95;;
50231;SDS011;36118;56.468;84.952;2022-12-13T07:40:56;10.32;;;4.25;;
50231;SDS011;36118;56.468;84.952;2022-12-13T07:46:03;10.40;;;4.20;;
50231;SDS011;36118;56.468;84.952;2022-12-13T07:51:08;14.80;;;4.45;;
50231;SDS011;36118;56.468;84.952;2022-12-13T07:56:15;8.65;;;3.45;;
50231;SDS011;36118;56.468;84.952;2022-12-13T08:01:17;14.93;;;6.72;;
50231;SDS011;36118;56.468;84.952;2022-12-13T08:06:20;13.25;;;5.20;;
50231;SDS011;36118;56.468;84.952;2022-12-13T08:11:23;11.75;;;3.90;;
50231;SDS011;36118;56.468;84.952;2022-12-13T08:16:26;13.88;;;5.15;;
50231;SDS011;36118;56.468;84.952;2022-12-13T08:21:37;11.98;;;4.22;;
50231;SDS011;36118;56.468;84.952;2022-12-13T08:27:00;12.95;;;3.08;;
50231;SDS011;36118;56.468;84.952;2022-12-13T08:32:05;14.55;;;4.57;;
50231;SDS011;36118;56.468;84.952;2022-12-13T08:37:10;9.05;;;3.63;;
50231;SDS011;36118;56.468;84.952;2022-12-13T08:42:14;8.65;;;2.80;;
50231;SDS011;36118;56.468;84.952;2022-12-13T08:47:22;11.40;;;3.72;;
50231;SDS011;36118;56.468;84.952;2022-12-13T08:52:27;33.83;;;11.35;;
50231;SDS011;36118;56.468;84.952;2022-12-13T08:57:30;20.77;;;6.93;;
50231;SDS011;36118;56.468;84.952;2022-12-13T09:02:33;40.87;;;10.63;;
50231;SDS011;36118;56.468;84.952;2022-12-13T09:07:39;28.83;;;7.85;;
50231;SDS011;36118;56.468;84.952;2022-12-13T09:17:45;38.83;;;10.60;;
50231;SDS011;36118;56.468;84.952;2022-12-13T09:22:53;29.00;;;8.57;;
50231;SDS011;36118;56.468;84.952;2022-12-13T09:28:04;29.05;;;8.25;;
50231;SDS011;36118;56.468;84.952;2022-12-13T09:33:08;36.65;;;10.45;;
50231;SDS011;36118;56.468;84.952;2022-12-13T09:38:34;40.25;;;12.68;;
50231;SDS011;36118;56.468;84.952;2022-12-13T09:43:37;27.15;;;6.90;;
50231;SDS011;36118;56.468;84.952;2022-12-13T09:48:44;42.75;;;12.35;;
50231;SDS011;36118;56.468;84.952;2022-12-13T09:53:50;26.15;;;7.45;;
50231;SDS011;36118;56.468;84.952;2022-12-13T09:58:54;28.13;;;9.60;;
50231;SDS011;36118;56.468;84.952;2022-12-13T10:09:00;18.23;;;6.85;;
50231;SDS011;36118;56.468;84.952;2022-12-13T10:14:10;12.43;;;7.00;;
50231;SDS011;36118;56.468;84.952;2022-12-13T10:19:33;15.02;;;4.78;;
50231;SDS011;36118;56.468;84.952;2022-12-13T10:35:33;17.80;;;5.35;;
50231;SDS011;36118;56.468;84.952;2022-12-13T10:40:40;19.70;;;6.50;;
50231;SDS011;36118;56.468;84.952;2022-12-13T10:50:56;14.85;;;6.65;;
50231;SDS011;36118;56.468;84.952;2022-12-13T10:56:02;28.33;;;8.20;;
50231;SDS011;36118;56.468;84.952;2022-12-13T11:06:21;15.05;;;5.80;;
50231;SDS011;36118;56.468;84.952;2022-12-13T11:11:28;20.77;;;6.80;;
50231;SDS011;36118;56.468;84.952;2022-12-13T11:16:32;8.23;;;3.00;;
50231;SDS011;36118;56.468;84.952;2022-12-13T11:21:36;16.02;;;6.13;;
50231;SDS011;36118;56.468;84.952;2022-12-13T11:26:40;12.95;;;5.00;;
50231;SDS011;36118;56.468;84.952;2022-12-13T11:42:27;15.75;;;5.55;;
50231;SDS011;36118;56.468;84.952;2022-12-13T11:52:49;9.60;;;3.55;;
50231;SDS011;36118;56.468;84.952;2022-12-13T11:58:03;13.68;;;4.93;;
50231;SDS011;36118;56.468;84.952;2022-12-13T12:08:58;12.75;;;5.45;;
50231;SDS011;36118;56.468;84.952;2022-12-13T12:14:12;10.77;;;4.65;;
50231;SDS011;36118;56.468;84.952;2022-12-13T12:19:22;17.35;;;6.88;;
50231;SDS011;36118;56.468;84.952;2022-12-13T12:35:13;4.90;;;2.67;;
50231;SDS011;36118;56.468;84.952;2022-12-13T13:07:13;4.60;;;2.83;;
50231;SDS011;36118;56.468;84.952;2022-12-13T13:12:24;14.32;;;4.97;;
50231;SDS011;36118;56.468;84.952;2022-12-13T13:22:34;4.28;;;2.53;;
50231;SDS011;36118;56.468;84.952;2022-12-13T13:27:46;11.43;;;4.95;;
50231;SDS011;36118;56.468;84.952;2022-12-13T13:32:54;11.63;;;4.07;;
50231;SDS011;36118;56.468;84.952;2022-12-13T13:43:29;8.20;;;5.53;;
50231;SDS011;36118;56.468;84.952;2022-12-13T14:26:59;1.80;;;1.23;;
50231;SDS011;36118;56.468;84.952;2022-12-13T14:32:26;2.72;;;1.30;;
50231;SDS011;36118;56.468;84.952;2022-12-13T14:37:31;6.43;;;2.70;;
50231;SDS011;36118;56.468;84.952;2022-12-13T14:42:35;2.65;;;1.55;;
50231;SDS011;36118;56.468;84.952;2022-12-13T14:47:39;4.63;;;2.58;;
50231;SDS011;36118;56.468;84.952;2022-12-13T14:52:43;4.22;;;1.52;;
50231;SDS011;36118;56.468;84.952;2022-12-13T14:57:50;24.27;;;4.43;;
50231;SDS011;36118;56.468;84.952;2022-12-13T15:02:55;4.15;;;2.65;;
50231;SDS011;36118;56.468;84.952;2022-12-13T15:08:00;6.03;;;2.53;;
50231;SDS011;36118;56.468;84.952;2022-12-13T15:18:31;6.30;;;2.63;;
50231;SDS011;36118;56.468;84.952;2022-12-13T15:23:37;3.88;;;2.10;;
50231;SDS011;36118;56.468;84.952;2022-12-13T15:29:03;7.75;;;3.45;;
50231;SDS011;36118;56.468;84.952;2022-12-13T15:39:35;3.53;;;1.98;;
50231;SDS011;36118;56.468;84.952;2022-12-13T15:44:43;8.70;;;2.20;;
50231;SDS011;36118;56.468;84.952;2022-12-13T15:49:53;3.55;;;1.75;;
50231;SDS011;36118;56.468;84.952;2022-12-13T16:05:28;6.93;;;2.17;;
50231;SDS011;36118;56.468;84.952;2022-12-13T16:10:32;3.47;;;1.77;;
50231;SDS011;36118;56.468;84.952;2022-12-13T16:15:49;6.60;;;2.22;;
50231;SDS011;36118;56.468;84.952;2022-12-13T16:21:00;3.28;;;1.40;;
50231;SDS011;36118;56.468;84.952;2022-12-13T16:26:03;4.43;;;2.13;;
50231;SDS011;36118;56.468;84.952;2022-12-13T16:36:18;7.93;;;2.50;;
50231;SDS011;36118;56.468;84.952;2022-12-13T16:41:21;3.67;;;1.58;;
50231;SDS011;36118;56.468;84.952;2022-12-13T16:46:24;2.92;;;1.33;;
50231;SDS011;36118;56.468;84.952;2022-12-13T16:51:47;3.03;;;1.48;;
50231;SDS011;36118;56.468;84.952;2022-12-13T16:56:50;6.55;;;2.63;;
50231;SDS011;36118;56.468;84.952;2022-12-13T17:01:54;2.90;;;1.15;;
50231;SDS011;36118;56.468;84.952;2022-12-13T17:06:56;10.25;;;3.03;;
50231;SDS011;36118;56.468;84.952;2022-12-13T17:11:59;14.68;;;4.20;;
50231;SDS011;36118;56.468;84.952;2022-12-13T17:17:02;3.38;;;1.50;;
50231;SDS011;36118;56.468;84.952;2022-12-13T17:22:04;2.55;;;1.45;;
50231;SDS011;36118;56.468;84.952;2022-12-13T17:27:07;3.60;;;1.85;;
50231;SDS011;36118;56.468;84.952;2022-12-13T17:32:11;2.78;;;1.38;;
50231;SDS011;36118;56.468;84.952;2022-12-13T17:37:14;7.30;;;3.10;;
50231;SDS011;36118;56.468;84.952;2022-12-13T17:42:16;2.08;;;1.23;;
50231;SDS011;36118;56.468;84.952;2022-12-13T17:47:19;3.67;;;1.33;;
50231;SDS011;36118;56.468;84.952;2022-12-13T17:52:22;3.92;;;1.65;;
50231;SDS011;36118;56.468;84.952;2022-12-13T17:57:25;2.22;;;1.63;;
50231;SDS011;36118;56.468;84.952;2022-12-13T18:02:27;4.97;;;2.08;;
50231;SDS011;36118;56.468;84.952;2022-12-13T18:07:30;1.85;;;0.98;;
50231;SDS011;36118;56.468;84.952;2022-12-13T18:12:33;2.95;;;1.05;;
50231;SDS011;36118;56.468;84.952;2022-12-13T18:17:36;6.97;;;1.80;;
50231;SDS011;36118;56.468;84.952;2022-12-13T18:22:59;11.27;;;3.67;;
50231;SDS011;36118;56.468;84.952;2022-12-13T18:28:01;3.22;;;1.35;;
50231;SDS011;36118;56.468;84.952;2022-12-13T18:33:04;2.58;;;1.38;;
50231;SDS011;36118;56.468;84.952;2022-12-13T18:38:07;2.22;;;1.73;;
50231;SDS011;36118;56.468;84.952;2022-12-13T18:43:10;4.50;;;1.92;;
50231;SDS011;36118;56.468;84.952;2022-12-13T18:48:13;3.08;;;0.77;;
50231;SDS011;36118;56.468;84.952;2022-12-13T18:53:15;3.67;;;2.00;;
50231;SDS011;36118;56.468;84.952;2022-12-13T18:58:18;5.47;;;1.20;;
50231;SDS011;36118;56.468;84.952;2022-12-13T19:03:21;4.88;;;1.42;;
50231;SDS011;36118;56.468;84.952;2022-12-13T19:08:25;2.65;;;1.05;;
50231;SDS011;36118;56.468;84.952;2022-12-13T19:13:30;0.82;;;0.68;;
50231;SDS011;36118;56.468;84.952;2022-12-13T19:18:34;3.40;;;1.75;;
50231;SDS011;36118;56.468;84.952;2022-12-13T19:23:38;5.65;;;2.40;;
50231;SDS011;36118;56.468;84.952;2022-12-13T19:28:42;1.95;;;1.23;;
50231;SDS011;36118;56.468;84.952;2022-12-13T19:33:45;0.55;;;0.50;;
50231;SDS011;36118;56.468;84.952;2022-12-13T19:38:48;6.95;;;2.03;;
50231;SDS011;36118;56.468;84.952;2022-12-13T19:43:51;5.55;;;1.85;;
50231;SDS011;36118;56.468;84.952;2022-12-13T19:48:55;7.38;;;1.23;;
50231;SDS011;36118;56.468;84.952;2022-12-13T19:53:58;5.70;;;2.33;;
50231;SDS011;36118;56.468;84.952;2022-12-13T19:59:00;2.78;;;1.33;;
50231;SDS011;36118;56.468;84.952;2022-12-13T20:04:03;0.73;;;0.55;;
50231;SDS011;36118;56.468;84.952;2022-12-13T20:09:06;4.53;;;1.20;;
50231;SDS011;36118;56.468;84.952;2022-12-13T20:14:09;4.18;;;1.88;;
50231;SDS011;36118;56.468;84.952;2022-12-13T20:19:11;18.15;;;1.35;;
50231;SDS011;36118;56.468;84.952;2022-12-13T20:24:16;2.25;;;0.68;;
50231;SDS011;36118;56.468;84.952;2022-12-13T20:29:19;6.07;;;2.03;;
50231;SDS011;36118;56.468;84.952;2022-12-13T20:34:22;4.88;;;1.98;;
50231;SDS011;36118;56.468;84.952;2022-12-13T20:39:25;3.20;;;0.65;;
50231;SDS011;36118;56.468;84.952;2022-12-13T20:44:27;0.90;;;0.57;;
50231;SDS011;36118;56.468;84.952;2022-12-13T20:49:30;4.78;;;1.58;;
50231;SDS011;36118;56.468;84.952;2022-12-13T20:54:33;3.15;;;1.50;;
50231;SDS011;36118;56.468;84.952;2022-12-13T20:59:37;1.92;;;1.23;;
50231;SDS011;36118;56.468;84.952;2022-12-13T21:04:39;3.65;;;1.98;;
50231;SDS011;36118;56.468;84.952;2022-12-13T21:09:42;6.22;;;0.60;;
50231;SDS011;36118;56.468;84.952;2022-12-13T21:14:45;0.43;;;0.30;;
50231;SDS011;36118;56.468;84.952;2022-12-13T21:19:48;3.28;;;1.95;;
50231;SDS011;36118;56.468;84.952;2022-12-13T21:24:51;2.30;;;1.20;;
50231;SDS011;36118;56.468;84.952;2022-12-13T21:29:54;2.45;;;1.23;;
50231;SDS011;36118;56.468;84.952;2022-12-13T21:34:57;7.13;;;1.42;;
50231;SDS011;36118;56.468;84.952;2022-12-13T21:39:59;8.38;;;2.15;;
50231;SDS011;36118;56.468;84.952;2022-12-13T21:45:03;4.32;;;1.23;;
50231;SDS011;36118;56.468;84.952;2022-12-13T21:50:06;6.55;;;1.10;;
50231;SDS011;36118;56.468;84.952;2022-12-13T21:55:09;0.50;;;0.43;;
50231;SDS011;36118;56.468;84.952;2022-12-13T22:00:33;1.17;;;0.63;;
50231;SDS011;36118;56.468;84.952;2022-12-13T22:05:36;1.83;;;0.68;;
50231;SDS011;36118;56.468;84.952;2022-12-13T22:10:38;2.22;;;0.95;;
50231;SDS011;36118;56.468;84.952;2022-12-13T22:16:01;3.72;;;1.45;;
50231;SDS011;36118;56.468;84.952;2022-12-13T22:21:04;3.13;;;1.45;;
50231;SDS011;36118;56.468;84.952;2022-12-13T22:26:07;3.42;;;1.50;;
50231;SDS011;36118;56.468;84.952;2022-12-13T22:31:10;12.40;;;8.90;;
50231;SDS011;36118;56.468;84.952;2022-12-13T22:36:12;5.82;;;2.45;;
50231;SDS011;36118;56.468;84.952;2022-12-13T22:41:15;7.68;;;1.30;;
50231;SDS011;36118;56.468;84.952;2022-12-13T22:46:18;3.03;;;1.63;;
50231;SDS011;36118;56.468;84.952;2022-12-13T22:51:21;3.22;;;1.08;;
50231;SDS011;36118;56.468;84.952;2022-12-13T22:56:24;1.23;;;0.90;;
50231;SDS011;36118;56.468;84.952;2022-12-13T23:01:28;0.60;;;0.60;;
50231;SDS011;36118;56.468;84.952;2022-12-13T23:06:36;3.72;;;1.27;;
50231;SDS011;36118;56.468;84.952;2022-12-13T23:11:40;0.43;;;0.28;;
50231;SDS011;36118;56.468;84.952;2022-12-13T23:17:02;4.78;;;2.03;;
50231;SDS011;36118;56.468;84.952;2022-12-13T23:22:05;4.05;;;1.23;;
50231;SDS011;36118;56.468;84.952;2022-12-13T23:27:09;11.13;;;2.97;;
50231;SDS011;36118;56.468;84.952;2022-12-13T23:32:12;1.00;;;0.73;;
50231;SDS011;36118;56.468;84.952;2022-12-13T23:37:15;3.72;;;1.50;;
50231;SDS011;36118;56.468;84.952;2022-12-13T23:42:19;6.28;;;1.23;;
50231;SDS011;36118;56.468;84.952;2022-12-13T23:47:22;0.77;;;0.60;;
50231;SDS011;36118;56.468;84.952;2022-12-13T23:52:25;4.90;;;0.77;;
50231;SDS011;36118;56.468;84.952;2022-12-13T23:57:27;1.65;;;1.55;;
